createdAt,value
2018-02-11T00:00:20.248Z,7.30
2018-02-11T00:02:47.771Z,8.13
2018-02-11T00:05:16.316Z,7.40
2018-02-11T00:07:44.612Z,11.33
2018-02-11T00:10:12.144Z,5.60
2018-02-11T00:12:40.447Z,11.70
2018-02-11T00:15:08.232Z,6.60
2018-02-11T00:17:36.077Z,8.13
2018-02-11T00:20:03.595Z,6.67
2018-02-11T00:22:31.873Z,7.97
2018-02-11T00:24:59.647Z,8.50
2018-02-11T00:27:27.163Z,10.87
2018-02-11T00:29:54.686Z,4.87
2018-02-11T00:32:22.187Z,5.40
2018-02-11T00:34:49.744Z,10.30
2018-02-11T00:37:24.050Z,4.87
2018-02-11T00:39:51.568Z,4.80
2018-02-11T00:42:19.076Z,4.57
2018-02-11T00:44:46.627Z,7.13
2018-02-11T00:47:14.244Z,6.80
2018-02-11T00:49:42.860Z,3.50
2018-02-11T00:52:10.403Z,4.97
2018-02-11T00:54:37.968Z,4.50
2018-02-11T00:57:05.578Z,9.83
2018-02-11T00:59:36.040Z,7.50
2018-02-11T01:02:07.644Z,5.50
2018-02-11T01:04:35.237Z,4.03
2018-02-11T01:07:02.772Z,6.33
2018-02-11T01:09:30.315Z,6.50
2018-02-11T01:11:57.921Z,3.30
2018-02-11T01:14:25.964Z,3.53
2018-02-11T01:16:53.599Z,3.90
2018-02-11T01:19:22.033Z,5.60
2018-02-11T01:21:50.338Z,9.10
2018-02-11T01:24:17.921Z,4.43
2018-02-11T01:26:45.522Z,2.30
2018-02-11T01:29:13.811Z,4.60
2018-02-11T01:31:42.092Z,7.40
2018-02-11T01:34:09.681Z,3.73
2018-02-11T01:36:37.998Z,3.40
2018-02-11T01:39:07.460Z,6.23
2018-02-11T01:41:35.537Z,5.07
2018-02-11T01:44:03.831Z,2.40
2018-02-11T01:46:31.576Z,2.90
2018-02-11T01:48:59.868Z,5.43
2018-02-11T01:51:27.400Z,2.47
2018-02-11T01:53:55.697Z,3.50
2018-02-11T01:56:23.501Z,3.23
2018-02-11T01:58:51.057Z,2.30
2018-02-11T02:01:18.618Z,2.07
2018-02-11T02:03:46.153Z,3.00
2018-02-11T02:06:13.671Z,4.13
2018-02-11T02:08:41.201Z,2.77
2018-02-11T02:11:08.752Z,2.50
2018-02-11T02:13:36.313Z,2.73
2018-02-11T02:16:03.835Z,2.23
2018-02-11T02:18:31.368Z,2.70
2018-02-11T02:20:59.642Z,2.60
2018-02-11T02:23:28.040Z,8.17
2018-02-11T02:25:55.562Z,2.67
2018-02-11T02:28:23.074Z,2.23
2018-02-11T02:30:50.604Z,3.27
2018-02-11T02:33:19.292Z,5.07
2018-02-11T02:35:46.829Z,2.43
2018-02-11T02:38:15.190Z,2.23
2018-02-11T02:40:42.735Z,2.93
2018-02-11T02:43:10.239Z,3.40
2018-02-11T02:45:38.533Z,2.80
2018-02-11T02:48:06.282Z,3.00
2018-02-11T02:50:33.836Z,1.17
2018-02-11T02:53:01.413Z,2.27
2018-02-11T02:55:29.602Z,3.50
2018-02-11T02:57:57.127Z,2.47
2018-02-11T03:00:24.701Z,2.40
2018-02-11T03:02:52.220Z,4.00
2018-02-11T03:05:21.124Z,2.50
2018-02-11T03:07:49.455Z,2.90
2018-02-11T03:10:17.020Z,1.90
2018-02-11T03:12:44.623Z,2.13
2018-02-11T03:15:15.605Z,1.77
2018-02-11T03:17:43.816Z,1.97
2018-02-11T03:20:11.453Z,2.20
2018-02-11T03:22:39.861Z,1.87
2018-02-11T03:25:07.418Z,2.00
2018-02-11T03:27:34.984Z,3.60
2018-02-11T03:30:02.560Z,1.90
2018-02-11T03:32:30.154Z,3.10
2018-02-11T03:34:57.699Z,1.50
2018-02-11T03:37:25.244Z,3.47
2018-02-11T03:39:53.506Z,1.10
2018-02-11T03:42:21.139Z,2.70
2018-02-11T03:44:49.471Z,1.73
2018-02-11T03:47:17.260Z,1.17
2018-02-11T03:49:44.861Z,0.93
2018-02-11T03:52:12.450Z,1.10
2018-02-11T03:54:42.659Z,2.60
2018-02-11T03:57:10.551Z,1.77
2018-02-11T03:59:38.181Z,1.20
2018-02-11T04:02:05.750Z,1.10
2018-02-11T04:04:33.379Z,0.90
2018-02-11T04:07:01.146Z,1.17
2018-02-11T04:09:30.856Z,1.40
2018-02-11T04:11:58.393Z,1.40
2018-02-11T04:14:26.845Z,2.00
2018-02-11T04:16:54.897Z,1.10
2018-02-11T04:19:22.477Z,1.47
2018-02-11T04:21:50.019Z,1.50
2018-02-11T04:24:17.567Z,1.30
2018-02-11T04:26:47.303Z,1.50
2018-02-11T04:29:14.873Z,1.13
2018-02-11T04:31:43.210Z,1.77
2018-02-11T04:34:10.810Z,0.90
2018-02-11T04:36:39.162Z,2.20
2018-02-11T04:39:07.156Z,1.00
2018-02-11T04:41:35.549Z,1.00
2018-02-11T04:44:03.866Z,1.57
2018-02-11T04:46:32.356Z,1.07
2018-02-11T04:48:59.911Z,0.97
2018-02-11T04:51:27.470Z,3.40
2018-02-11T04:53:54.990Z,1.10
2018-02-11T04:56:22.604Z,1.30
2018-02-11T04:58:50.231Z,1.10
2018-02-11T05:01:17.802Z,3.77
2018-02-11T05:03:45.399Z,0.90
2018-02-11T05:06:14.859Z,1.13
2018-02-11T05:08:42.429Z,1.53
2018-02-11T05:11:10.049Z,1.43
2018-02-11T05:13:38.577Z,6.20
2018-02-11T05:16:06.225Z,1.10
2018-02-11T05:18:33.756Z,1.00
2018-02-11T05:21:01.343Z,0.97
2018-02-11T05:23:28.886Z,0.83
2018-02-11T05:25:56.478Z,2.10
2018-02-11T05:28:31.133Z,1.40
2018-02-11T05:31:01.183Z,0.90
2018-02-11T05:33:28.786Z,0.80
2018-02-11T05:35:56.358Z,0.90
2018-02-11T05:38:24.695Z,1.50
2018-02-11T05:46:37.907Z,2.17
2018-02-11T05:49:11.492Z,2.50
2018-02-11T05:51:39.050Z,0.90
2018-02-11T05:54:06.676Z,1.00
2018-02-11T05:56:34.888Z,0.80
2018-02-11T05:59:02.491Z,3.50
2018-02-11T06:01:30.119Z,2.37
2018-02-11T06:03:57.723Z,0.80
2018-02-11T06:06:25.593Z,1.10
2018-02-11T06:08:54.334Z,0.80
2018-02-11T06:11:21.853Z,0.70
2018-02-11T06:13:49.505Z,1.10
2018-02-11T06:16:17.014Z,0.87
2018-02-11T06:18:44.542Z,0.80
2018-02-11T06:21:12.080Z,0.97
2018-02-11T06:23:39.623Z,0.73
2018-02-11T06:26:07.258Z,0.80
2018-02-11T06:28:35.813Z,0.90
2018-02-11T06:31:03.432Z,0.80
2018-02-11T06:33:30.951Z,0.80
2018-02-11T06:35:58.477Z,0.80
2018-02-11T06:38:26.832Z,0.70
2018-02-11T06:40:54.408Z,2.07
2018-02-11T06:43:23.399Z,0.93
2018-02-11T06:45:50.992Z,1.23
2018-02-11T06:48:18.522Z,1.10
2018-02-11T06:50:46.058Z,1.63
2018-02-11T06:53:14.572Z,0.80
2018-02-11T06:55:42.134Z,0.80
2018-02-11T06:58:09.636Z,2.20
2018-02-11T07:00:37.280Z,1.30
2018-02-11T07:03:04.828Z,4.50
2018-02-11T07:05:32.753Z,0.90
2018-02-11T07:08:00.323Z,1.17
2018-02-11T07:10:27.876Z,2.60
2018-02-11T07:12:56.181Z,0.80
2018-02-11T07:15:24.675Z,0.90
2018-02-11T07:17:52.239Z,1.27
2018-02-11T07:20:21.204Z,1.67
2018-02-11T07:22:48.794Z,1.10
2018-02-11T07:25:16.383Z,1.13
2018-02-11T07:27:44.749Z,3.93
2018-02-11T07:30:12.291Z,5.67
2018-02-11T07:32:42.283Z,1.10
2018-02-11T07:35:10.624Z,1.47
2018-02-11T07:37:39.595Z,1.10
2018-02-11T07:42:41.500Z,1.40
2018-02-11T07:45:09.993Z,1.83
2018-02-11T07:47:37.531Z,4.60
2018-02-11T07:50:05.230Z,6.20
2018-02-11T07:52:32.819Z,3.10
2018-02-11T07:55:01.203Z,2.10
2018-02-11T07:57:28.742Z,1.53
2018-02-11T07:59:56.287Z,2.00
2018-02-11T08:02:24.138Z,2.03
2018-02-11T08:04:52.013Z,3.67
2018-02-11T08:07:19.562Z,5.03
2018-02-11T08:09:47.173Z,3.40
2018-02-11T08:12:19.900Z,2.10
2018-02-11T08:14:47.483Z,4.57
2018-02-11T08:17:15.821Z,2.57
2018-02-11T08:19:45.332Z,2.80
2018-02-11T08:22:12.862Z,3.73
2018-02-11T08:24:40.433Z,4.93
2018-02-11T08:27:07.930Z,1.93
2018-02-11T08:29:37.054Z,6.03
2018-02-11T08:32:05.491Z,6.70
2018-02-11T08:34:33.039Z,3.83
2018-02-11T08:37:01.685Z,6.03
2018-02-11T08:39:30.010Z,12.73
2018-02-11T08:41:57.554Z,6.97
2018-02-11T08:44:25.132Z,1.83
2018-02-11T08:46:52.667Z,3.27
2018-02-11T08:49:20.209Z,6.23
2018-02-11T08:51:47.771Z,6.53
2018-02-11T08:54:15.332Z,4.23
2018-02-11T08:56:42.939Z,6.10
2018-02-11T08:59:12.939Z,8.83
2018-02-11T09:01:40.492Z,2.10
2018-02-11T09:04:08.089Z,5.47
2018-02-11T09:09:09.616Z,3.13
2018-02-11T09:11:37.187Z,5.37
2018-02-11T09:14:04.726Z,11.00
2018-02-11T09:16:32.284Z,5.40
2018-02-11T09:18:59.850Z,2.83
2018-02-11T09:21:27.384Z,5.83
2018-02-11T09:23:54.920Z,7.77
2018-02-11T09:26:23.247Z,10.57
2018-02-11T09:28:51.682Z,9.77
2018-02-11T09:31:20.007Z,4.87
2018-02-11T09:33:47.560Z,9.93
2018-02-11T09:36:15.083Z,6.37
2018-02-11T09:38:42.626Z,6.53
2018-02-11T09:41:11.064Z,3.70
2018-02-11T09:43:38.604Z,9.10
2018-02-11T09:46:06.154Z,7.03
2018-02-11T09:48:34.467Z,18.87
2018-02-11T09:51:02.035Z,7.53
2018-02-11T09:53:30.435Z,4.50
2018-02-11T09:55:58.471Z,7.87
2018-02-11T09:58:25.962Z,12.90
2018-02-11T10:00:53.532Z,6.87
2018-02-11T10:03:21.096Z,7.23
2018-02-11T10:05:48.619Z,6.47
2018-02-11T10:08:16.871Z,10.30
2018-02-11T10:10:45.232Z,16.33
2018-02-11T10:13:12.808Z,8.53
2018-02-11T10:15:40.313Z,7.90
2018-02-11T10:18:07.840Z,11.23
2018-02-11T10:20:36.118Z,6.70
2018-02-11T10:23:04.414Z,9.80
2018-02-11T10:25:31.953Z,4.43
2018-02-11T10:28:00.276Z,18.07
2018-02-11T10:30:27.787Z,11.93
2018-02-11T10:32:56.094Z,7.13
2018-02-11T10:35:23.603Z,14.07
2018-02-11T10:37:51.147Z,8.23
2018-02-11T10:40:18.650Z,10.07
2018-02-11T10:42:46.673Z,15.13
2018-02-11T10:45:14.178Z,8.60
2018-02-11T10:47:41.699Z,5.70
2018-02-11T10:50:09.227Z,9.50
2018-02-11T10:52:36.763Z,7.93
2018-02-11T10:55:04.311Z,7.60
2018-02-11T10:57:31.829Z,7.50
2018-02-11T10:59:59.368Z,14.77
2018-02-11T11:02:27.878Z,19.73
2018-02-11T11:04:56.183Z,10.53
2018-02-11T11:07:23.716Z,9.27
2018-02-11T11:09:52.000Z,7.30
2018-02-11T11:12:20.300Z,5.70
2018-02-11T11:14:48.069Z,9.27
2018-02-11T11:17:15.664Z,16.33
2018-02-11T11:19:43.171Z,12.87
2018-02-11T11:22:10.680Z,6.93
